Time;durP1;ratioP1;P1;durP2;ratioP2;P2;SDS_P1;SDS_P2;PMS_P1;PMS_P2;Temp;Humidity;BMP_temperature;BMP_pressure;BME280_temperature;BME280_humidity;BME280_pressure;Samples;Min_cycle;Max_cycle;Signal;HPM_P1;HPM_P2
2023/05/23 04:02:10;;;;;;;18.03;16.43;;;19.80;81.90;;;;;;5389217;23;20511;-78
2023/05/23 04:04:38;;;;;;;21.23;19.33;;;19.70;81.90;;;;;;5015921;28;20452;-76
2023/05/23 04:07:05;;;;;;;19.30;17.80;;;19.70;82.00;;;;;;5015231;28;20999;-76
2023/05/23 04:09:32;;;;;;;19.93;18.33;;;19.60;82.50;;;;;;5015600;28;20440;-76
2023/05/23 04:11:58;;;;;;;19.93;18.33;;;19.60;82.30;;;;;;5015321;28;20464;-76
2023/05/23 04:14:26;;;;;;;19.63;17.90;;;19.50;82.50;;;;;;5015990;28;20484;-76
2023/05/23 04:16:53;;;;;;;20.53;18.73;;;19.40;82.90;;;;;;5015348;28;20506;-76
2023/05/23 04:19:21;;;;;;;18.70;17.20;;;19.40;82.90;;;;;;5015271;28;20455;-76
2023/05/23 04:21:47;;;;;;;20.17;18.27;;;19.50;83.10;;;;;;5015123;28;20469;-76
2023/05/23 04:24:14;;;;;;;18.40;16.93;;;19.50;82.80;;;;;;5015006;28;20806;-76
2023/05/23 04:26:41;;;;;;;21.27;19.40;;;19.40;83.10;;;;;;5015155;28;20816;-76
2023/05/23 04:29:10;;;;;;;19.03;17.53;;;19.50;83.10;;;;;;5015121;28;20457;-76
2023/05/23 04:31:37;;;;;;;18.63;17.13;;;19.50;82.80;;;;;;5014986;28;20523;-76
2023/05/23 04:34:04;;;;;;;18.20;16.80;;;19.50;82.90;;;;;;5014955;28;20491;-76
2023/05/23 04:36:32;;;;;;;17.60;16.13;;;19.70;82.70;;;;;;5014864;28;20448;-75
2023/05/23 04:38:58;;;;;;;18.53;17.03;;;19.70;82.30;;;;;;5015078;28;20444;-76
2023/05/23 04:41:25;;;;;;;19.10;17.50;;;19.60;82.50;;;;;;5014775;28;20479;-76
2023/05/23 04:43:53;;;;;;;17.83;16.43;;;19.70;82.50;;;;;;5014486;28;20933;-76
2023/05/23 04:46:25;;;;;;;17.30;15.90;;;19.70;82.30;;;;;;5014749;28;20535;-75
2023/05/23 04:48:52;;;;;;;17.83;16.43;;;19.70;82.10;;;;;;5014832;28;20491;-77
2023/05/23 04:51:20;;;;;;;18.03;16.27;;;19.70;81.90;;;;;;5014756;28;20472;-76
2023/05/23 04:53:48;;;;;;;17.90;16.40;;;19.70;82.10;;;;;;5015183;28;20928;-75
2023/05/23 04:56:16;;;;;;;17.00;15.50;;;19.70;82.00;;;;;;5014620;28;20583;-76
2023/05/23 04:58:44;;;;;;;17.07;15.77;;;19.70;82.30;;;;;;5014616;28;20480;-76
2023/05/23 05:01:11;;;;;;;17.90;16.50;;;19.80;81.90;;;;;;5014361;28;20920;-76
2023/05/23 05:03:37;;;;;;;17.30;15.90;;;19.80;81.80;;;;;;5014475;28;20483;-76
2023/05/23 05:06:04;;;;;;;17.20;15.80;;;19.80;81.70;;;;;;5014393;28;20456;-76
2023/05/23 05:08:31;;;;;;;17.77;16.37;;;19.90;81.30;;;;;;5014418;28;20448;-76
2023/05/23 05:10:59;;;;;;;16.80;15.40;;;19.70;81.60;;;;;;5014242;28;20469;-76
2023/05/23 05:13:26;;;;;;;18.07;16.77;;;19.70;82.00;;;;;;5013719;28;20574;-76
2023/05/23 05:15:53;;;;;;;15.70;14.50;;;19.80;81.90;;;;;;5014200;28;20498;-76
2023/05/23 05:18:19;;;;;;;16.63;15.40;;;19.70;82.00;;;;;;5014176;28;20448;-76
2023/05/23 05:20:46;;;;;;;16.90;15.57;;;19.90;81.60;;;;;;5013769;28;20460;-76
2023/05/23 05:23:13;;;;;;;17.43;16.13;;;19.90;81.50;;;;;;5014227;28;20448;-76
2023/05/23 05:25:40;;;;;;;15.30;14.20;;;19.80;81.40;;;;;;5014079;28;20503;-76
2023/05/23 05:28:08;;;;;;;16.47;15.20;;;19.90;81.50;;;;;;5013734;28;20955;-76
2023/05/23 05:30:35;;;;;;;16.13;14.83;;;19.90;81.20;;;;;;5013909;28;20448;-76
2023/05/23 05:33:02;;;;;;;15.40;14.20;;;19.90;81.20;;;;;;5013948;28;20476;-75
2023/05/23 05:35:31;;;;;;;15.87;14.67;;;19.90;81.20;;;;;;5013936;28;20449;-76
2023/05/23 05:37:58;;;;;;;17.40;16.00;;;19.80;81.20;;;;;;5013836;28;20448;-76
2023/05/23 05:40:25;;;;;;;15.97;14.77;;;19.90;81.30;;;;;;5013833;28;20486;-78
2023/05/23 05:42:52;;;;;;;16.20;14.90;;;20.00;80.90;;;;;;5014081;28;20457;-76
2023/05/23 05:45:20;;;;;;;16.80;15.33;;;20.10;80.50;;;;;;5013791;28;20456;-76
2023/05/23 05:47:46;;;;;;;17.13;15.53;;;20.10;80.40;;;;;;5013926;28;20459;-76
2023/05/23 05:50:13;;;;;;;16.00;14.70;;;20.00;80.50;;;;;;5013996;28;20460;-76
2023/05/23 05:52:41;;;;;;;16.27;14.97;;;20.00;80.60;;;;;;5013733;28;20877;-76
2023/05/23 05:55:10;;;;;;;16.23;15.03;;;20.10;80.40;;;;;;5013775;28;20448;-76
2023/05/23 05:57:37;;;;;;;16.80;15.60;;;20.00;80.50;;;;;;5014084;28;20445;-76
2023/05/23 06:00:11;;;;;;;17.33;15.93;;;20.00;80.50;;;;;;5013676;28;20456;-76
2023/05/23 06:02:39;;;;;;;16.53;15.07;;;19.90;80.50;;;;;;5013718;28;20484;-77
2023/05/23 06:05:06;;;;;;;16.30;15.10;;;19.90;80.60;;;;;;5014050;28;20444;-76
2023/05/23 06:07:33;;;;;;;17.50;16.20;;;19.80;80.80;;;;;;5014118;28;20456;-77
2023/05/23 06:10:00;;;;;;;16.73;15.53;;;20.00;80.70;;;;;;5013348;28;20802;-77
2023/05/23 06:12:27;;;;;;;16.77;15.37;;;20.10;80.20;;;;;;5014348;28;20468;-77
2023/05/23 06:14:53;;;;;;;16.53;15.13;;;20.10;80.40;;;;;;5014450;28;20491;-77
2023/05/23 06:17:20;;;;;;;18.17;16.33;;;20.20;80.10;;;;;;5015431;28;20448;-77
2023/05/23 06:19:48;;;;;;;17.77;16.47;;;20.10;79.90;;;;;;5014717;28;20448;-77
2023/05/23 06:22:15;;;;;;;17.63;16.13;;;20.20;79.70;;;;;;5013434;28;20879;-77
2023/05/23 06:24:41;;;;;;;16.63;15.33;;;20.10;79.70;;;;;;5013432;28;20860;-77
2023/05/23 06:27:08;;;;;;;15.87;14.63;;;20.10;80.00;;;;;;5017479;28;20444;-76
2023/05/23 06:29:35;;;;;;;16.57;15.40;;;20.10;79.90;;;;;;5017348;28;20452;-77
2023/05/23 06:32:02;;;;;;;15.97;14.87;;;20.10;80.20;;;;;;5017205;28;20476;-77
2023/05/23 06:34:29;;;;;;;18.20;16.50;;;20.20;79.80;;;;;;5017119;28;20487;-77
2023/05/23 06:36:57;;;;;;;17.70;16.10;;;20.30;79.50;;;;;;5017220;28;20452;-77
2023/05/23 06:39:24;;;;;;;15.83;14.63;;;20.40;79.50;;;;;;5017217;28;20510;-77
2023/05/23 06:41:50;;;;;;;16.73;15.23;;;20.20;79.20;;;;;;5016783;28;21074;-77
2023/05/23 06:44:17;;;;;;;16.77;15.57;;;20.30;79.10;;;;;;5016895;28;20527;-77
2023/05/23 06:46:45;;;;;;;15.53;14.43;;;20.50;78.90;;;;;;5016870;28;20459;-77
2023/05/23 06:49:12;;;;;;;16.70;15.40;;;20.60;78.70;;;;;;5017339;28;21029;-76
2023/05/23 06:51:39;;;;;;;13.33;12.23;;;20.60;78.40;;;;;;5016965;28;20468;-77
2023/05/23 06:54:07;;;;;;;14.83;13.70;;;20.60;77.70;;;;;;5016936;28;20487;-76
2023/05/23 06:56:34;;;;;;;14.00;13.00;;;20.50;77.90;;;;;;5016533;28;20507;-77
2023/05/23 06:59:00;;;;;;;14.77;13.70;;;20.50;77.70;;;;;;5016563;28;20483;-77
2023/05/23 07:01:27;;;;;;;13.73;12.53;;;20.40;78.00;;;;;;5016666;28;20515;-77
2023/05/23 07:03:54;;;;;;;16.33;15.10;;;20.50;78.10;;;;;;5016680;28;20521;-77
2023/05/23 07:06:20;;;;;;;14.60;13.50;;;20.50;78.00;;;;;;5016682;28;20453;-77
2023/05/23 07:08:47;;;;;;;13.47;12.43;;;20.40;78.00;;;;;;5016615;28;20524;-77
2023/05/23 07:11:15;;;;;;;14.13;13.13;;;20.20;78.30;;;;;;5016425;28;20483;-77
2023/05/23 07:13:42;;;;;;;13.17;12.17;;;20.20;78.20;;;;;;5017020;28;20496;-77
2023/05/23 07:16:09;;;;;;;13.87;12.87;;;20.00;78.20;;;;;;5016687;28;20456;-77
2023/05/23 07:18:35;;;;;;;13.30;12.30;;;19.90;78.80;;;;;;5016425;28;20510;-77
2023/05/23 07:21:02;;;;;;;13.63;12.53;;;19.70;78.90;;;;;;5016330;28;20472;-77
2023/05/23 07:23:32;;;;;;;12.30;11.30;;;19.60;79.20;;;;;;5016347;28;20448;-77
2023/05/23 07:25:59;;;;;;;14.67;13.57;;;19.60;79.30;;;;;;5016317;28;20499;-77
2023/05/23 07:28:27;;;;;;;13.40;12.50;;;19.50;79.70;;;;;;5016204;28;20455;-77
2023/05/23 07:30:56;;;;;;;13.90;12.80;;;19.40;79.70;;;;;;5016081;28;20468;-77
2023/05/23 07:33:22;;;;;;;14.87;13.67;;;19.30;80.10;;;;;;5015859;28;20956;-77
2023/05/23 07:35:49;;;;;;;11.97;11.07;;;19.30;80.10;;;;;;5015656;28;20452;-77
2023/05/23 07:38:16;;;;;;;13.17;12.20;;;19.30;80.00;;;;;;5016046;28;20448;-77
2023/05/23 07:40:43;;;;;;;13.67;12.60;;;19.20;79.90;;;;;;5016012;28;20468;-77
2023/05/23 07:43:09;;;;;;;14.37;13.27;;;19.10;80.30;;;;;;5016040;28;20790;-77
2023/05/23 07:45:37;;;;;;;14.93;13.83;;;19.00;80.70;;;;;;5016051;28;20448;-77
2023/05/23 07:48:04;;;;;;;15.27;14.10;;;18.90;80.90;;;;;;5015908;28;20448;-77
2023/05/23 07:50:31;;;;;;;15.60;14.40;;;18.90;81.00;;;;;;5015873;28;20464;-77
2023/05/23 07:52:58;;;;;;;14.13;13.13;;;18.90;80.90;;;;;;5015527;28;20548;-77
2023/05/23 07:55:24;;;;;;;14.30;13.20;;;19.00;80.80;;;;;;5015665;28;20484;-77
2023/05/23 07:57:53;;;;;;;16.27;15.00;;;19.00;80.10;;;;;;5015666;28;20510;-77
2023/05/23 08:00:20;;;;;;;16.10;15.00;;;18.80;81.00;;;;;;5015584;28;20460;-77
2023/05/23 08:02:48;;;;;;;17.07;15.80;;;18.80;80.90;;;;;;5015515;28;20467;-77
2023/05/23 08:05:18;;;;;;;15.57;14.27;;;18.90;80.60;;;;;;5015591;28;20441;-77
2023/05/23 08:07:44;;;;;;;15.37;14.17;;;19.00;80.50;;;;;;5015511;28;20476;-77
2023/05/23 08:10:11;;;;;;;14.67;13.57;;;19.00;80.00;;;;;;5015539;28;20450;-77
2023/05/23 08:12:38;;;;;;;15.73;14.63;;;19.10;80.10;;;;;;5015083;28;20468;-77
2023/05/23 08:15:05;;;;;;;14.07;12.97;;;19.30;79.30;;;;;;5014850;28;20538;-76
2023/05/23 08:17:32;;;;;;;14.60;13.50;;;19.30;78.60;;;;;;5015337;28;20483;-77
2023/05/23 08:20:01;;;;;;;14.80;13.70;;;19.30;78.70;;;;;;5015274;28;20472;-77
2023/05/23 08:22:27;;;;;;;14.73;13.63;;;19.30;78.70;;;;;;5014834;28;20551;-77
2023/05/23 08:24:54;;;;;;;13.40;12.40;;;19.30;78.50;;;;;;5014953;28;20495;-77
2023/05/23 08:27:21;;;;;;;14.03;13.03;;;19.40;78.10;;;;;;5014857;28;20855;-77
2023/05/23 08:29:48;;;;;;;12.87;11.87;;;19.30;78.00;;;;;;5015091;28;20452;-77
2023/05/23 08:32:14;;;;;;;12.10;11.20;;;19.30;77.60;;;;;;5014892;28;20476;-77
2023/05/23 08:34:41;;;;;;;12.53;11.63;;;19.30;77.60;;;;;;5014950;28;20481;-77
2023/05/23 08:37:09;;;;;;;11.27;10.37;;;19.30;77.90;;;;;;5015008;28;20514;-77
2023/05/23 08:39:36;;;;;;;12.30;11.30;;;19.30;77.90;;;;;;5014923;28;20494;-77
2023/05/23 08:42:03;;;;;;;11.27;10.47;;;19.10;77.80;;;;;;5016537;28;20468;-76
2023/05/23 08:44:30;;;;;;;11.93;11.03;;;19.20;77.90;;;;;;5016126;28;20440;-76
2023/05/23 08:47:01;;;;;;;12.83;11.77;;;19.10;77.80;;;;;;5015199;28;20868;-77
2023/05/23 08:49:27;;;;;;;11.27;10.37;;;19.00;78.00;;;;;;5014002;28;20824;-77
2023/05/23 08:52:01;;;;;;;11.10;10.30;;;18.90;78.00;;;;;;5014661;28;20515;-77
2023/05/23 08:54:29;;;;;;;11.60;10.60;;;19.00;78.20;;;;;;5014601;28;20468;-77
2023/05/23 08:56:56;;;;;;;10.63;9.83;;;18.80;77.90;;;;;;5014521;28;20452;-77
2023/05/23 08:59:23;;;;;;;10.80;9.90;;;18.70;78.20;;;;;;5014547;28;20440;-77
2023/05/23 09:01:51;;;;;;;11.20;10.40;;;18.70;78.40;;;;;;5014455;28;20476;-76
2023/05/23 09:04:18;;;;;;;11.00;10.10;;;18.70;78.10;;;;;;5014445;28;20459;-77
2023/05/23 09:06:45;;;;;;;10.20;9.40;;;18.60;78.20;;;;;;5014377;28;20452;-77
2023/05/23 09:09:12;;;;;;;10.60;9.80;;;18.60;78.10;;;;;;5014625;28;20445;-77
2023/05/23 09:11:44;;;;;;;10.90;10.07;;;18.40;78.60;;;;;;5014304;28;20464;-77
2023/05/23 09:14:13;;;;;;;10.80;10.00;;;18.50;78.60;;;;;;5014239;28;20559;-77
2023/05/23 09:16:40;;;;;;;10.30;9.40;;;18.70;78.60;;;;;;5014195;28;20456;-77
2023/05/23 09:19:13;;;;;;;9.50;8.70;;;18.70;78.00;;;;;;5014195;28;20456;-77
2023/05/23 09:21:43;;;;;;;8.80;8.10;;;18.80;77.80;;;;;;5014080;28;20460;-77
2023/05/23 09:24:10;;;;;;;10.03;9.33;;;19.00;76.90;;;;;;5014200;28;20491;-77
2023/05/23 09:26:37;;;;;;;10.23;9.53;;;19.10;76.50;;;;;;5013852;28;20960;-77
2023/05/23 09:29:07;;;;;;;9.80;9.00;;;19.00;76.40;;;;;;5014318;28;20460;-77
2023/05/23 09:31:34;;;;;;;9.40;8.70;;;19.00;76.70;;;;;;5013933;28;20504;-77
2023/05/23 09:34:00;;;;;;;9.37;8.67;;;18.90;76.80;;;;;;5013925;28;20527;-77
2023/05/23 09:36:29;;;;;;;8.50;7.90;;;18.90;76.50;;;;;;5013983;28;20452;-77
2023/05/23 09:38:56;;;;;;;7.30;6.77;;;19.00;76.00;;;;;;5014076;28;20494;-77
2023/05/23 09:41:23;;;;;;;8.50;7.80;;;19.20;75.40;;;;;;5013993;28;20469;-76
2023/05/23 09:43:52;;;;;;;6.97;6.37;;;19.20;75.00;;;;;;5014239;28;20499;-76
2023/05/23 09:46:21;;;;;;;7.90;7.07;;;19.20;75.20;;;;;;5013997;28;20503;-76
2023/05/23 09:48:47;;;;;;;6.60;6.10;;;19.30;74.20;;;;;;5013821;28;20444;-76
2023/05/23 09:51:15;;;;;;;6.60;6.10;;;19.50;74.00;;;;;;5013882;28;20472;-76
2023/05/23 09:53:41;;;;;;;6.40;5.90;;;19.60;73.30;;;;;;5013703;28;20452;-76
2023/05/23 09:56:11;;;;;;;7.43;6.77;;;19.70;73.50;;;;;;5013694;28;20486;-76
2023/05/23 09:58:39;;;;;;;6.50;5.80;;;19.80;73.30;;;;;;5013612;28;20543;-76
2023/05/23 10:01:09;;;;;;;6.23;5.73;;;19.90;72.80;;;;;;5013523;28;20488;-77
2023/05/23 10:03:45;;;;;;;6.47;5.87;;;20.20;72.40;;;;;;5013637;28;20491;-76
2023/05/23 10:06:19;;;;;;;6.40;5.80;;;20.60;71.30;;;;;;5014277;28;20444;-76
2023/05/23 10:08:50;;;;;;;5.70;5.30;;;20.60;70.50;;;;;;5013217;28;20984;-77
2023/05/23 10:12:11;;;;;;;6.23;5.63;;;20.60;70.20;;;;;;5013529;28;20472;-77
2023/05/23 10:14:41;;;;;;;5.10;4.70;;;20.40;70.30;;;;;;5021291;23;20496;-75
2023/05/23 10:17:16;;;;;;;5.57;5.10;;;20.40;70.80;;;;;;5013444;28;20506;-76
2023/05/23 10:19:50;;;;;;;5.60;5.10;;;20.40;70.80;;;;;;5013526;28;20439;-76
2023/05/23 10:22:18;;;;;;;5.43;4.93;;;20.50;70.30;;;;;;5013497;28;20432;-77
2023/05/23 10:24:45;;;;;;;4.90;4.50;;;20.50;70.10;;;;;;5013362;28;20456;-76
2023/05/23 10:27:12;;;;;;;4.30;4.00;;;20.50;70.60;;;;;;5013107;28;20943;-77
2023/05/23 10:29:39;;;;;;;4.17;3.80;;;20.70;69.80;;;;;;5014020;28;20945;-77
2023/05/23 10:32:08;;;;;;;4.97;4.47;;;20.70;70.10;;;;;;5014330;28;20942;-77
2023/05/23 10:34:40;;;;;;;4.90;4.50;;;20.80;70.20;;;;;;5014344;28;20910;-77
2023/05/23 10:37:17;;;;;;;4.30;3.90;;;20.90;69.70;;;;;;5014411;28;20432;-77
2023/05/23 10:39:57;;;;;;;4.83;4.33;;;21.10;68.80;;;;;;5013498;28;20479;-77
2023/05/23 10:42:42;;;;;;;4.43;4.03;;;21.30;68.80;;;;;;5013319;28;20922;-76
2023/05/23 10:45:16;;;;;;;4.10;3.80;;;21.60;68.00;;;;;;5013665;28;20838;-77
2023/05/23 10:47:43;;;;;;;4.23;3.93;;;21.70;66.90;;;;;;5013512;28;20467;-76
2023/05/23 10:50:13;;;;;;;4.03;3.73;;;21.80;66.90;;;;;;5013346;28;20502;-77
2023/05/23 10:52:42;;;;;;;4.43;4.03;;;22.00;66.40;;;;;;5013195;28;20535;-77
2023/05/23 10:55:14;;;;;;;4.10;3.80;;;21.90;66.30;;;;;;5012655;28;20997;-76
2023/05/23 10:57:42;;;;;;;4.17;3.77;;;21.90;65.90;;;;;;5013175;28;20432;-76
2023/05/23 11:00:14;;;;;;;4.03;3.73;;;21.70;66.60;;;;;;5024873;28;20453;-77
2023/05/23 11:02:53;;;;;;;4.20;3.80;;;21.50;66.90;;;;;;5025629;28;20439;-77
2023/05/23 11:05:22;;;;;;;4.67;4.30;;;21.60;66.90;;;;;;5025100;28;20523;-77
2023/05/23 11:08:07;;;;;;;4.60;4.20;;;21.60;66.90;;;;;;5025637;28;20911;-78
2023/05/23 11:10:51;;;;;;;3.90;3.60;;;21.80;66.00;;;;;;5026442;28;20467;-77
2023/05/23 11:13:20;;;;;;;3.97;3.67;;;21.90;65.80;;;;;;5029541;28;20437;-77
2023/05/23 11:15:47;;;;;;;4.30;3.90;;;21.90;65.70;;;;;;5028366;28;20480;-77
2023/05/23 11:18:21;;;;;;;4.60;3.67;;;21.90;65.50;;;;;;5028986;28;20860;-76
2023/05/23 11:20:51;;;;;;;3.90;3.60;;;21.90;65.60;;;;;;5029026;28;20440;-76
2023/05/23 11:23:21;;;;;;;4.13;3.73;;;21.80;64.80;;;;;;5028467;28;20543;-77
2023/05/23 11:25:50;;;;;;;3.83;3.53;;;21.90;65.30;;;;;;5027880;28;20472;-77
2023/05/23 11:28:18;;;;;;;4.87;4.47;;;22.00;66.00;;;;;;5025638;28;20507;-77
2023/05/23 11:30:48;;;;;;;3.70;3.40;;;22.00;65.00;;;;;;5026453;28;20456;-77
2023/05/23 11:33:15;;;;;;;4.20;3.80;;;22.10;64.70;;;;;;5018355;28;20795;-77
2023/05/23 11:35:43;;;;;;;5.83;4.30;;;22.20;64.60;;;;;;5015677;28;20488;-77
2023/05/23 11:38:10;;;;;;;4.50;4.10;;;22.20;65.30;;;;;;5016098;28;20945;-77
2023/05/23 11:40:40;;;;;;;4.47;4.07;;;22.30;64.50;;;;;;5016090;28;20448;-77
2023/05/23 11:43:08;;;;;;;4.80;4.30;;;22.30;64.80;;;;;;5015769;28;20920;-77
2023/05/23 11:45:36;;;;;;;4.63;4.20;;;22.30;64.20;;;;;;5016188;28;20460;-77
2023/05/23 11:48:07;;;;;;;5.27;4.80;;;22.30;63.20;;;;;;5015956;28;20449;-77
2023/05/23 11:50:34;;;;;;;4.33;4.03;;;22.40;63.50;;;;;;5015884;28;20459;-76
2023/05/23 11:53:01;;;;;;;4.40;4.00;;;22.40;62.60;;;;;;5015826;28;20527;-76
2023/05/23 11:55:28;;;;;;;4.77;4.37;;;22.40;63.60;;;;;;5015324;28;20858;-77
2023/05/23 11:57:57;;;;;;;5.10;4.70;;;22.40;63.60;;;;;;5015734;28;20455;-76
2023/05/23 12:00:24;;;;;;;5.47;4.83;;;22.30;63.90;;;;;;5015616;28;20532;-77
2023/05/23 12:02:51;;;;;;;4.93;4.53;;;22.10;64.30;;;;;;5015762;28;20455;-77
2023/05/23 12:05:17;;;;;;;5.10;4.70;;;22.20;65.10;;;;;;5015233;28;21002;-77
2023/05/23 12:07:46;;;;;;;4.33;3.93;;;22.40;65.40;;;;;;5024888;28;20459;-79
2023/05/23 12:10:15;;;;;;;4.70;4.30;;;22.50;64.40;;;;;;5028789;28;20453;-76
2023/05/23 12:12:42;;;;;;;4.03;3.73;;;22.60;62.40;;;;;;5028482;28;20483;-77
2023/05/23 12:15:12;;;;;;;4.00;3.60;;;22.80;63.80;;;;;;5029119;28;20534;-77
2023/05/23 12:17:39;;;;;;;4.13;3.73;;;23.00;63.70;;;;;;5028731;28;20449;-77
2023/05/23 12:20:07;;;;;;;4.97;4.47;;;23.30;62.30;;;;;;5028318;28;20827;-78
2023/05/23 12:22:35;;;;;;;5.10;4.60;;;23.30;61.90;;;;;;5027616;28;20515;-78
2023/05/23 12:25:03;;;;;;;4.27;3.90;;;23.20;62.70;;;;;;5028149;28;20504;-78
2023/05/23 12:27:34;;;;;;;4.50;4.10;;;23.10;62.80;;;;;;5028160;28;20460;-78
2023/05/23 12:30:09;;;;;;;4.80;4.30;;;23.10;63.30;;;;;;5028717;28;20460;-78
2023/05/23 12:32:40;;;;;;;3.60;3.30;;;23.20;63.00;;;;;;5028813;28;20447;-78
2023/05/23 12:35:08;;;;;;;3.67;3.37;;;23.00;61.20;;;;;;5027921;28;20491;-79
2023/05/23 12:37:35;;;;;;;3.80;3.50;;;23.10;60.50;;;;;;5023604;28;20449;-80
2023/05/23 12:40:10;;;;;;;3.53;2.93;;;23.20;60.70;;;;;;5023867;28;20526;-77
2023/05/23 12:42:50;;;;;;;3.60;3.20;;;23.30;60.10;;;;;;5027190;28;20500;-78
2023/05/23 12:45:17;;;;;;;5.13;2.87;;;23.50;59.40;;;;;;5029549;28;20482;-78
2023/05/23 12:47:46;;;;;;;3.47;3.13;;;23.70;59.70;;;;;;5029105;28;20466;-80
2023/05/23 12:50:12;;;;;;;3.10;2.80;;;23.70;60.30;;;;;;5027428;28;21004;-78
2023/05/23 12:52:39;;;;;;;3.30;3.00;;;23.80;59.60;;;;;;5027538;28;20457;-78
2023/05/23 12:55:07;;;;;;;2.87;2.63;;;23.70;59.10;;;;;;5023367;28;20824;-77
2023/05/23 12:57:35;;;;;;;3.90;3.00;;;23.50;60.10;;;;;;5014831;28;20827;-78
2023/05/23 13:00:02;;;;;;;3.20;2.90;;;23.50;60.00;;;;;;5014752;28;20448;-78
2023/05/23 13:02:28;;;;;;;2.90;2.57;;;23.20;60.60;;;;;;5014657;28;20448;-78
2023/05/23 13:04:57;;;;;;;2.53;2.33;;;23.10;60.20;;;;;;5014626;28;20469;-78
2023/05/23 13:07:23;;;;;;;2.90;2.20;;;23.20;58.90;;;;;;5014637;28;20475;-78
2023/05/23 13:09:50;;;;;;;3.07;2.77;;;23.20;59.10;;;;;;5014244;28;20449;-77
2023/05/23 13:12:17;;;;;;;3.37;2.63;;;23.10;60.30;;;;;;5014626;28;20452;-77
2023/05/23 13:14:44;;;;;;;2.60;2.03;;;23.30;59.20;;;;;;5014240;28;20488;-77
2023/05/23 13:17:11;;;;;;;2.30;2.00;;;23.40;58.90;;;;;;5014489;28;20491;-78
2023/05/23 13:19:38;;;;;;;2.40;1.70;;;23.60;58.60;;;;;;5014834;28;20459;-77
2023/05/23 13:22:09;;;;;;;2.60;2.10;;;23.60;59.10;;;;;;5014384;28;20494;-78
2023/05/23 13:24:36;;;;;;;2.43;2.23;;;23.60;58.40;;;;;;5014321;28;20547;-78
2023/05/23 13:27:03;;;;;;;2.80;2.37;;;23.60;59.20;;;;;;5014439;28;20510;-78
2023/05/23 13:29:30;;;;;;;3.27;2.57;;;23.70;59.10;;;;;;5014219;28;20475;-78
2023/05/23 13:31:58;;;;;;;2.60;2.17;;;23.40;57.90;;;;;;5014259;28;20535;-78
2023/05/23 13:34:25;;;;;;;3.37;1.90;;;23.40;58.30;;;;;;5013786;28;20496;-76
2023/05/23 13:36:52;;;;;;;3.20;2.13;;;23.30;58.70;;;;;;5013755;28;20476;-77
2023/05/23 13:39:21;;;;;;;2.43;2.20;;;23.40;59.10;;;;;;5014375;28;20528;-78
2023/05/23 13:41:48;;;;;;;2.27;1.87;;;23.50;59.10;;;;;;5014879;28;20463;-78
2023/05/23 13:44:14;;;;;;;3.07;2.20;;;23.40;59.10;;;;;;5014338;28;20468;-78
2023/05/23 13:46:42;;;;;;;2.90;2.33;;;23.40;59.00;;;;;;5013935;28;20455;-77
2023/05/23 13:49:08;;;;;;;2.30;2.00;;;23.40;59.30;;;;;;5014136;28;20440;-78
2023/05/23 13:51:36;;;;;;;2.40;2.00;;;23.10;60.80;;;;;;5013929;28;20507;-78
2023/05/23 13:54:02;;;;;;;5.30;2.47;;;22.90;60.90;;;;;;5013874;28;20468;-78
2023/05/23 13:56:30;;;;;;;3.20;2.30;;;22.70;62.80;;;;;;5013765;28;20476;-78
2023/05/23 13:58:57;;;;;;;2.73;2.17;;;22.70;62.50;;;;;;5013529;28;20942;-78
2023/05/23 14:01:24;;;;;;;2.60;1.97;;;22.70;62.50;;;;;;5013795;28;20448;-77
2023/05/23 14:03:50;;;;;;;2.43;2.00;;;22.60;62.70;;;;;;5013341;28;20900;-78
2023/05/23 14:06:17;;;;;;;2.73;1.90;;;22.40;62.90;;;;;;5013794;28;20448;-78
2023/05/23 14:08:45;;;;;;;4.00;1.80;;;22.30;63.60;;;;;;5013622;28;20498;-78
2023/05/23 14:11:11;;;;;;;2.30;1.83;;;22.40;64.10;;;;;;5013578;28;20441;-78
2023/05/23 14:13:39;;;;;;;2.43;1.80;;;22.30;62.60;;;;;;5013376;28;20460;-78
2023/05/23 14:16:06;;;;;;;2.83;1.90;;;22.20;62.60;;;;;;5017192;28;20495;-79
2023/05/23 14:18:33;;;;;;;4.73;2.10;;;22.20;62.60;;;;;;5023896;28;20447;-78
2023/05/23 14:21:00;;;;;;;3.30;1.83;;;22.20;62.70;;;;;;5023069;28;20456;-77
2023/05/23 14:23:28;;;;;;;2.70;1.90;;;22.20;62.80;;;;;;5022530;28;20456;-78
2023/05/23 14:25:55;;;;;;;2.60;2.03;;;22.20;62.90;;;;;;5022294;28;20448;-78
2023/05/23 14:28:22;;;;;;;2.97;1.80;;;22.20;62.60;;;;;;5022578;28;20851;-78
2023/05/23 14:30:50;;;;;;;2.47;1.90;;;22.30;61.60;;;;;;5022695;28;20535;-78
2023/05/23 14:33:16;;;;;;;2.20;1.63;;;22.30;61.90;;;;;;5022576;28;20459;-79
2023/05/23 14:35:43;;;;;;;2.90;1.63;;;22.50;62.30;;;;;;5023100;28;20478;-79
2023/05/23 14:38:10;;;;;;;2.17;1.73;;;22.80;62.90;;;;;;5021856;28;20884;-78
2023/05/23 14:40:37;;;;;;;2.10;1.60;;;23.00;61.10;;;;;;5022483;28;20468;-78
2023/05/23 14:43:04;;;;;;;4.13;2.20;;;23.10;61.20;;;;;;5021836;28;20466;-79
2023/05/23 14:45:30;;;;;;;2.20;1.77;;;23.10;61.10;;;;;;5025527;28;20463;-78
2023/05/23 14:47:58;;;;;;;2.23;2.00;;;23.20;61.10;;;;;;5032687;28;20475;-78
2023/05/23 14:50:26;;;;;;;3.80;2.10;;;23.30;60.50;;;;;;5027278;28;20459;-78
2023/05/23 14:52:53;;;;;;;3.80;1.83;;;23.40;59.90;;;;;;5029698;28;20451;-78
2023/05/23 14:55:20;;;;;;;3.10;2.17;;;23.40;59.90;;;;;;5022264;28;20472;-77
2023/05/23 14:57:47;;;;;;;2.60;2.07;;;23.40;59.20;;;;;;5016881;28;20492;-78
2023/05/23 15:00:14;;;;;;;2.60;1.93;;;23.30;60.10;;;;;;5017178;28;20817;-78
2023/05/23 15:02:41;;;;;;;2.43;1.60;;;23.20;60.80;;;;;;5017022;28;20872;-78
2023/05/23 15:05:10;;;;;;;2.87;2.00;;;23.10;61.10;;;;;;5016855;28;20479;-78
2023/05/23 15:07:37;;;;;;;2.27;1.73;;;22.90;61.10;;;;;;5016587;28;20449;-78
2023/05/23 15:10:05;;;;;;;2.30;1.70;;;22.90;61.50;;;;;;5016982;28;20465;-78
2023/05/23 15:12:32;;;;;;;2.77;1.87;;;23.10;61.40;;;;;;5016504;28;20961;-78
2023/05/23 15:15:02;;;;;;;2.70;1.70;;;23.20;61.10;;;;;;5016479;28;20904;-78
2023/05/23 15:17:29;;;;;;;2.60;1.80;;;23.50;61.80;;;;;;5016748;28;20477;-78
2023/05/23 15:19:56;;;;;;;2.20;2.00;;;23.70;59.70;;;;;;5016691;28;20555;-78
2023/05/23 15:22:24;;;;;;;2.40;1.90;;;23.60;59.10;;;;;;5016502;28;20503;-79
2023/05/23 15:24:51;;;;;;;2.13;1.83;;;23.60;60.00;;;;;;5016762;28;20495;-78
2023/05/23 15:27:18;;;;;;;2.40;1.70;;;23.20;60.10;;;;;;5016662;28;20456;-78
2023/05/23 15:29:45;;;;;;;2.30;1.60;;;22.80;61.70;;;;;;5016190;28;20812;-78
2023/05/23 15:32:11;;;;;;;2.37;1.60;;;22.70;61.50;;;;;;5016436;28;20506;-78
2023/05/23 15:34:38;;;;;;;2.57;1.77;;;22.90;61.50;;;;;;5016374;28;20475;-79
2023/05/23 15:37:05;;;;;;;2.50;2.07;;;23.10;61.50;;;;;;5016336;28;20484;-78
2023/05/23 15:39:33;;;;;;;2.30;2.00;;;23.20;60.30;;;;;;5016374;28;20961;-78
2023/05/23 15:42:00;;;;;;;2.00;1.70;;;23.40;59.80;;;;;;5016206;28;20514;-78
2023/05/23 15:44:26;;;;;;;2.10;1.33;;;23.60;58.50;;;;;;5016125;28;20468;-78
2023/05/23 15:46:53;;;;;;;2.33;1.37;;;23.70;59.00;;;;;;5016138;28;20451;-78
2023/05/23 15:49:20;;;;;;;2.17;1.67;;;23.80;58.40;;;;;;5016107;28;20494;-78
2023/05/23 15:51:46;;;;;;;2.00;1.60;;;23.70;58.00;;;;;;5015648;28;20863;-78
2023/05/23 15:54:14;;;;;;;4.83;2.00;;;23.70;58.90;;;;;;5015574;28;20932;-78
2023/05/23 15:56:42;;;;;;;3.10;2.30;;;23.60;59.80;;;;;;5015314;28;20842;-78
2023/05/23 15:59:09;;;;;;;2.83;1.80;;;23.70;59.40;;;;;;5015980;28;20479;-78
2023/05/23 16:01:36;;;;;;;2.57;2.13;;;23.70;59.70;;;;;;5015838;28;20548;-78
2023/05/23 16:04:03;;;;;;;2.80;2.43;;;23.70;59.40;;;;;;5015868;28;20472;-79
2023/05/23 16:06:30;;;;;;;3.00;1.97;;;23.40;61.00;;;;;;5015721;28;20471;-79
2023/05/23 16:08:58;;;;;;;2.10;1.67;;;23.30;60.60;;;;;;5015734;28;20449;-78
2023/05/23 16:11:24;;;;;;;2.50;2.03;;;23.30;60.50;;;;;;5015700;28;20503;-78
2023/05/23 16:13:53;;;;;;;2.73;2.20;;;23.10;60.90;;;;;;5071969;22;20523;-78
2023/05/23 16:16:19;;;;;;;2.70;1.93;;;23.10;59.90;;;;;;5035045;28;21016;-78
2023/05/23 16:18:46;;;;;;;3.20;1.80;;;22.90;60.50;;;;;;5035300;28;20820;-78
2023/05/23 16:21:18;;;;;;;2.40;1.93;;;22.70;60.50;;;;;;5034868;28;20941;-78
2023/05/23 16:23:45;;;;;;;2.00;1.60;;;22.70;60.80;;;;;;5034986;28;20909;-79
2023/05/23 16:26:12;;;;;;;5.63;2.17;;;22.80;60.20;;;;;;5035281;28;20478;-78
2023/05/23 16:28:41;;;;;;;2.47;2.27;;;22.70;60.50;;;;;;5034770;28;20952;-78
2023/05/23 16:31:09;;;;;;;2.53;2.33;;;22.60;61.20;;;;;;5034704;28;20463;-78
2023/05/23 16:33:36;;;;;;;2.83;2.50;;;22.60;61.50;;;;;;5035200;28;20471;-79
2023/05/23 16:36:03;;;;;;;2.90;2.60;;;22.50;62.20;;;;;;5035024;28;20446;-78
2023/05/23 16:38:29;;;;;;;3.10;2.80;;;22.40;63.20;;;;;;5034936;28;20444;-78
2023/05/23 16:40:56;;;;;;;3.80;3.20;;;22.40;63.50;;;;;;5034787;28;20443;-78
2023/05/23 16:43:23;;;;;;;3.60;2.73;;;22.10;63.90;;;;;;5036662;28;20436;-78